Terminal Aerodrome Forecast
Issued by NWS

Home | Current Version | Previous Version | Text Only | Print | Product List | Glossary On
Versions: 1 2 3 4 5 6 7 8 9 10 11 12 13 14 15 16 17
486
FTAK31 PAJN 251734
TAFAYA
TAF
PAYA 251734Z 2518/2618 11004KT P6SM VCSH SCT025 BKN050
      TEMPO 2518/2522 6SM -SHRA BR BKN025 OVC050
     FM252200 09004KT P6SM -SHRA VCTS BKN025CB BKN070
     FM260400 08004KT P6SM BKN070
     FM260900 00000KT 6SM BR VCFG FEW004
      AMD LTD TO CLD VIS AND WIND 2601/2609=

USA.gov is the U.S. government's official web portal to all federal, state and local government web resources and services.